Time;durP1;ratioP1;P1;durP2;ratioP2;P2;SDS_P1;SDS_P2;PMS_P1;PMS_P2;Temp;Humidity;BMP_temperature;BMP_pressure;BME280_temperature;BME280_humidity;BME280_pressure;Samples;Min_cycle;Max_cycle;Signal;HPM_P1;HPM_P2
2022/12/28 00:01:53;;;;;;;9.07;3.85;;;5.40;99.90;;;;;;5044508;28;20099;-78
2022/12/28 00:04:18;;;;;;;9.48;3.97;;;5.40;99.90;;;;;;5045532;28;20153;-79
2022/12/28 00:06:46;;;;;;;7.55;3.28;;;5.40;99.90;;;;;;5032257;28;20041;-78
2022/12/28 00:09:12;;;;;;;11.30;3.58;;;5.40;99.90;;;;;;5050080;28;20044;-77
2022/12/28 00:11:38;;;;;;;10.65;4.00;;;5.30;99.90;;;;;;5049501;28;20048;-77
2022/12/28 00:14:04;;;;;;;7.22;3.83;;;5.40;99.90;;;;;;5029856;28;20040;-78
2022/12/28 00:16:36;;;;;;;6.65;4.00;;;5.30;99.90;;;;;;5066179;28;20040;-77
2022/12/28 00:19:11;;;;;;;8.93;2.97;;;5.40;99.90;;;;;;5039018;28;20041;-77
2022/12/28 00:21:37;;;;;;;10.13;3.35;;;5.30;99.90;;;;;;5043253;28;20586;-76
2022/12/28 00:24:03;;;;;;;9.40;3.38;;;5.20;99.90;;;;;;5043691;28;20049;-77
2022/12/28 00:26:31;;;;;;;12.45;3.60;;;5.40;99.90;;;;;;5029800;28;20183;-78
2022/12/28 00:28:57;;;;;;;10.10;3.53;;;5.40;99.90;;;;;;5049439;28;20098;-77
2022/12/28 00:31:23;;;;;;;11.10;3.08;;;5.30;99.90;;;;;;5049986;28;20568;-76
2022/12/28 00:33:49;;;;;;;8.38;3.75;;;6.30;99.90;;;;;;5043871;28;20045;-77
2022/12/28 00:36:15;;;;;;;10.07;3.80;;;5.30;99.90;;;;;;5019060;28;20041;-76
2022/12/28 00:38:42;;;;;;;10.85;4.32;;;6.80;99.90;;;;;;5014509;28;20617;-77
2022/12/28 00:41:08;;;;;;;8.43;3.80;;;6.80;99.90;;;;;;4666695;28;10000250;-76
2022/12/28 00:43:34;;;;;;;6.25;3.40;;;5.40;99.90;;;;;;5030701;28;20049;-77
2022/12/28 00:46:01;;;;;;;11.68;4.50;;;5.50;99.90;;;;;;5061758;28;20136;-77
2022/12/28 00:48:26;;;;;;;7.45;4.00;;;5.40;99.90;;;;;;5036665;28;20054;-76
2022/12/28 00:50:59;;;;;;;17.17;4.20;;;7.20;99.90;;;;;;5044669;28;20045;-78
2022/12/28 00:53:25;;;;;;;8.60;4.20;;;6.60;99.90;;;;;;5032967;28;20072;-78
2022/12/28 00:55:50;;;;;;;9.98;4.32;;;5.40;99.90;;;;;;5050414;28;20088;-78
2022/12/28 00:58:16;;;;;;;7.38;3.97;;;5.50;99.90;;;;;;5037844;28;20037;-77
2022/12/28 01:00:41;;;;;;;13.27;4.25;;;5.50;99.90;;;;;;5039287;28;20405;-77
2022/12/28 01:03:07;;;;;;;9.23;3.67;;;4.60;99.90;;;;;;5053861;28;20053;-77
2022/12/28 01:05:33;;;;;;;9.25;3.88;;;5.50;99.90;;;;;;5034298;28;20080;-77
2022/12/28 01:07:58;;;;;;;7.93;3.50;;;6.20;99.90;;;;;;5036682;28;20038;-78
2022/12/28 01:10:24;;;;;;;7.10;3.75;;;5.50;99.90;;;;;;5018729;28;20045;-77
2022/12/28 01:12:50;;;;;;;5.75;3.25;;;5.60;99.90;;;;;;5030066;28;20078;-77
2022/12/28 01:15:15;;;;;;;6.95;3.67;;;5.50;99.90;;;;;;5022925;28;20048;-76
2022/12/28 01:17:41;;;;;;;9.60;3.75;;;7.30;99.90;;;;;;5047827;28;20103;-76
2022/12/28 01:20:08;;;;;;;12.20;4.75;;;5.10;99.90;;;;;;5033928;28;20399;-78
2022/12/28 01:22:33;;;;;;;14.30;4.40;;;5.50;99.90;;;;;;5035892;28;20069;-78
2022/12/28 01:24:59;;;;;;;11.80;3.10;;;4.70;99.90;;;;;;5056443;28;20080;-78
2022/12/28 01:27:25;;;;;;;8.60;3.40;;;7.70;99.90;;;;;;5031829;28;20040;-77
2022/12/28 01:29:50;;;;;;;8.48;3.75;;;5.50;99.90;;;;;;5012594;28;20048;-78
2022/12/28 01:32:16;;;;;;;8.77;3.42;;;5.60;99.90;;;;;;5036054;28;20044;-77
2022/12/28 01:34:42;;;;;;;9.13;3.70;;;5.60;99.90;;;;;;5041549;28;20482;-79
2022/12/28 01:37:07;;;;;;;6.75;4.13;;;5.60;99.90;;;;;;5070933;28;20075;-78
2022/12/28 01:39:33;;;;;;;7.65;4.32;;;5.60;99.90;;;;;;5047072;28;20041;-79
2022/12/28 01:41:59;;;;;;;11.35;3.40;;;5.60;99.90;;;;;;5039329;28;20072;-78
2022/12/28 01:44:25;;;;;;;10.43;4.32;;;6.10;99.90;;;;;;5029472;28;20091;-78
2022/12/28 01:46:59;;;;;;;7.60;3.95;;;5.60;99.90;;;;;;5047088;28;20428;-78
2022/12/28 01:49:53;;;;;;;6.30;3.83;;;5.60;99.90;;;;;;5024536;28;20041;-77
2022/12/28 01:52:28;;;;;;;10.23;3.78;;;5.60;99.90;;;;;;5038692;28;20071;-77
2022/12/28 01:55:29;;;;;;;7.28;4.18;;;7.20;99.90;;;;;;5025730;28;20044;-77
2022/12/28 01:58:10;;;;;;;11.00;4.15;;;5.70;99.90;;;;;;4993115;28;20119;-77
2022/12/28 02:00:36;;;;;;;14.05;4.50;;;5.60;99.90;;;;;;5043181;28;20107;-78
2022/12/28 02:03:10;;;;;;;7.40;3.65;;;7.00;99.90;;;;;;5028538;28;20037;-77
2022/12/28 02:05:40;;;;;;;7.82;3.83;;;5.60;99.90;;;;;;5047104;28;20055;-77
2022/12/28 02:08:18;;;;;;;12.38;4.43;;;5.60;99.90;;;;;;5074614;28;20053;-77
2022/12/28 02:10:44;;;;;;;7.55;4.40;;;5.60;99.90;;;;;;5039053;28;20053;-77
2022/12/28 02:13:11;;;;;;;10.38;4.05;;;5.60;99.90;;;;;;5039305;28;20099;-77
2022/12/28 02:15:37;;;;;;;12.60;4.00;;;5.60;99.90;;;;;;5041551;28;20044;-78
2022/12/28 02:18:02;;;;;;;11.57;3.75;;;7.30;99.90;;;;;;5044321;28;20443;-78
2022/12/28 02:20:51;;;;;;;8.55;4.22;;;5.70;99.90;;;;;;5046921;28;20051;-78
2022/12/28 02:23:32;;;;;;;11.18;4.72;;;5.70;99.90;;;;;;5075188;28;20041;-78
2022/12/28 02:26:13;;;;;;;13.88;5.25;;;5.70;99.90;;;;;;5049052;28;20480;-79
2022/12/28 02:28:48;;;;;;;11.98;5.03;;;7.30;99.90;;;;;;5040922;28;20048;-79
2022/12/28 02:31:27;;;;;;;12.05;3.75;;;5.60;99.90;;;;;;5058252;28;20056;-80
2022/12/28 02:34:10;;;;;;;10.23;4.68;;;5.70;99.90;;;;;;5045961;28;20135;-79
2022/12/28 02:36:46;;;;;;;9.93;4.15;;;5.70;99.90;;;;;;5017912;28;20052;-79
2022/12/28 02:39:24;;;;;;;10.10;4.00;;;5.70;99.90;;;;;;5028420;28;20045;-78
2022/12/28 02:41:51;;;;;;;10.23;4.35;;;5.70;99.90;;;;;;5036148;28;20456;-78
2022/12/28 02:50:04;;;;;;;6.70;3.95;;;7.30;99.90;;;;;;5045170;28;20045;-78
2022/12/28 02:50:05;;;;;;;10.82;5.20;;;5.70;99.90;;;;;;5044286;28;20080;-78
2022/12/28 02:52:42;;;;;;;13.30;5.10;;;5.70;99.90;;;;;;5069381;28;20413;-78
2022/12/28 02:58:27;;;;;;;13.17;4.43;;;4.80;99.90;;;;;;5045741;28;20053;-78
2022/12/28 03:01:12;;;;;;;9.05;4.53;;;5.80;99.90;;;;;;5035087;28;20316;-78
2022/12/28 03:04:15;;;;;;;8.27;5.40;;;5.70;99.90;;;;;;5077545;28;20041;-78
2022/12/28 03:09:45;;;;;;;8.77;5.18;;;5.30;99.90;;;;;;5049155;28;20526;-78
2022/12/28 03:12:30;;;;;;;7.03;4.28;;;5.80;99.90;;;;;;5026819;28;20086;-78
2022/12/28 03:15:06;;;;;;;13.05;5.43;;;5.90;99.90;;;;;;5047219;28;20057;-78
2022/12/28 03:31:35;;;;;;;7.13;5.65;;;6.00;99.90;;;;;;5047706;28;20053;-79
2022/12/28 03:34:07;;;;;;;7.70;5.20;;;6.00;99.90;;;;;;5044473;28;20547;-77
2022/12/28 03:37:03;;;;;;;7.90;4.70;;;6.00;99.90;;;;;;5056421;28;20465;-78
2022/12/28 03:39:49;;;;;;;4.95;4.25;;;6.00;99.90;;;;;;5036831;28;20033;-78
2022/12/28 03:45:31;;;;;;;6.63;5.38;;;6.10;99.90;;;;;;5045747;28;20052;-78
2022/12/28 03:48:00;;;;;;;6.13;4.38;;;6.10;99.90;;;;;;5029904;28;20401;-78
2022/12/28 03:50:26;;;;;;;4.78;3.92;;;6.10;99.90;;;;;;5048431;28;20545;-77
2022/12/28 03:52:52;;;;;;;8.77;4.80;;;6.10;99.90;;;;;;5029013;28;20037;-79
2022/12/28 03:55:18;;;;;;;5.85;5.07;;;7.10;99.90;;;;;;5047287;28;20036;-79
2022/12/28 03:57:43;;;;;;;5.57;4.70;;;7.10;99.90;;;;;;5049450;28;20178;-80
2022/12/28 04:00:09;;;;;;;4.40;4.00;;;6.20;99.90;;;;;;5043115;28;20523;-79
2022/12/28 04:02:36;;;;;;;5.10;4.13;;;6.20;99.90;;;;;;5031592;28;20033;-79
2022/12/28 04:05:03;;;;;;;8.05;4.78;;;6.20;99.90;;;;;;5050535;28;20095;-78
2022/12/28 04:07:29;;;;;;;6.20;5.45;;;6.20;99.90;;;;;;5088747;28;20045;-78
2022/12/28 04:09:54;;;;;;;5.60;4.72;;;6.10;99.90;;;;;;5033527;28;20045;-79
2022/12/28 04:12:20;;;;;;;6.10;4.78;;;6.20;99.90;;;;;;5047152;28;20528;-78
2022/12/28 04:14:45;;;;;;;5.47;4.35;;;6.20;99.90;;;;;;5044935;28;20041;-78
2022/12/28 04:17:11;;;;;;;4.63;4.22;;;6.30;99.90;;;;;;5050846;28;20044;-79
2022/12/28 04:19:37;;;;;;;4.72;3.92;;;6.70;99.90;;;;;;5050171;28;20076;-78
2022/12/28 04:22:03;;;;;;;3.72;3.20;;;6.30;99.90;;;;;;5044681;28;20037;-79
2022/12/28 04:24:28;;;;;;;4.50;4.10;;;6.60;99.90;;;;;;5038996;28;20095;-78
2022/12/28 04:26:54;;;;;;;4.63;4.15;;;7.70;99.90;;;;;;5048355;28;20473;-79
2022/12/28 04:29:20;;;;;;;5.82;4.53;;;7.90;99.90;;;;;;5048262;28;20325;-78
2022/12/28 04:31:46;;;;;;;4.55;3.78;;;6.40;99.90;;;;;;5029961;28;20044;-79
2022/12/28 04:34:12;;;;;;;4.65;4.20;;;6.40;99.90;;;;;;5043301;28;20485;-78
2022/12/28 04:36:45;;;;;;;5.00;4.53;;;6.40;99.90;;;;;;5045529;28;20048;-78
2022/12/28 04:39:11;;;;;;;5.88;4.65;;;6.40;99.90;;;;;;5075777;28;20043;-78
2022/12/28 04:41:37;;;;;;;4.97;4.57;;;6.40;99.90;;;;;;5029629;28;20037;-78
2022/12/28 04:44:05;;;;;;;7.25;5.00;;;6.40;99.90;;;;;;5044765;28;20049;-79
2022/12/28 04:46:31;;;;;;;4.40;4.00;;;6.50;99.90;;;;;;5030125;28;20064;-79
2022/12/28 04:48:56;;;;;;;5.45;4.75;;;6.50;99.90;;;;;;5047756;28;20082;-79
2022/12/28 04:51:24;;;;;;;6.57;5.28;;;6.50;99.90;;;;;;5041621;28;20042;-78
2022/12/28 04:53:51;;;;;;;5.53;5.03;;;7.30;99.90;;;;;;5025160;28;20077;-79
2022/12/28 04:56:19;;;;;;;5.75;5.25;;;7.60;99.90;;;;;;5040696;28;20816;-79
2022/12/28 04:58:48;;;;;;;5.05;4.65;;;6.60;99.90;;;;;;5046604;28;20029;-80
2022/12/28 05:01:18;;;;;;;6.35;5.78;;;6.60;99.90;;;;;;5062900;28;20172;-79
2022/12/28 05:03:45;;;;;;;6.93;5.97;;;6.60;99.90;;;;;;5042030;28;20067;-78
2022/12/28 05:06:14;;;;;;;7.70;6.35;;;6.60;99.90;;;;;;5038913;28;20615;-78
2022/12/28 05:08:40;;;;;;;7.65;6.80;;;6.70;99.90;;;;;;5036768;28;20048;-79
2022/12/28 05:11:12;;;;;;;8.23;6.32;;;7.80;99.90;;;;;;5042070;28;20069;-80
2022/12/28 05:13:38;;;;;;;8.00;6.57;;;7.80;99.90;;;;;;5038744;28;20037;-78
2022/12/28 05:16:06;;;;;;;6.95;6.28;;;6.70;99.90;;;;;;5038632;28;20052;-79
2022/12/28 05:18:33;;;;;;;7.30;6.57;;;6.70;99.90;;;;;;5061111;28;20063;-77
2022/12/28 05:21:15;;;;;;;7.22;5.55;;;6.70;99.90;;;;;;5046219;28;20045;-79
2022/12/28 05:23:41;;;;;;;7.90;7.13;;;6.80;99.90;;;;;;5044967;28;20044;-79
2022/12/28 05:26:11;;;;;;;8.20;7.50;;;6.80;99.90;;;;;;5046819;28;20064;-79
2022/12/28 05:28:37;;;;;;;11.35;8.85;;;7.00;99.90;;;;;;5046100;28;20040;-79
2022/12/28 05:31:05;;;;;;;9.18;8.25;;;7.50;99.90;;;;;;5016810;28;20041;-79
2022/12/28 05:33:33;;;;;;;10.88;8.80;;;6.80;99.90;;;;;;5043985;28;20067;-79
2022/12/28 05:36:07;;;;;;;10.50;8.07;;;6.90;99.90;;;;;;5066213;28;20049;-78
2022/12/28 05:38:33;;;;;;;;;;;6.90;99.90;;;;;;5072033;28;20055;-79
2022/12/28 05:41:11;;;;;;;9.15;7.78;;;7.20;99.90;;;;;;5045615;28;19921;-79
2022/12/28 05:43:37;;;;;;;9.45;8.48;;;7.00;99.90;;;;;;5045001;28;20041;-79
2022/12/28 05:46:06;;;;;;;9.50;8.38;;;7.00;99.90;;;;;;5040725;28;20045;-79
2022/12/28 05:48:37;;;;;;;9.85;8.80;;;7.20;99.90;;;;;;5012255;28;20087;-79
2022/12/28 05:51:06;;;;;;;11.52;9.32;;;7.40;99.90;;;;;;5043877;28;20155;-79
2022/12/28 05:53:32;;;;;;;10.77;9.68;;;7.10;99.90;;;;;;5026934;28;20087;-79
2022/12/28 05:56:18;;;;;;;12.00;10.07;;;8.40;99.90;;;;;;5040208;28;20060;-79
2022/12/28 05:58:45;;;;;;;9.10;7.78;;;7.20;99.90;;;;;;5044418;28;20049;-79
2022/12/28 06:01:17;;;;;;;10.90;9.75;;;7.20;99.90;;;;;;5042390;28;20037;-79
2022/12/28 06:03:43;;;;;;;10.98;9.13;;;7.20;99.90;;;;;;5045391;28;20126;-78
2022/12/28 06:06:15;;;;;;;11.18;8.35;;;7.20;99.90;;;;;;5044320;28;20447;-78
2022/12/28 06:08:41;;;;;;;9.45;8.55;;;7.30;99.90;;;;;;5044987;28;20588;-78
2022/12/28 06:11:10;;;;;;;10.13;9.07;;;7.30;99.90;;;;;;5043884;28;20634;-78
2022/12/28 06:13:36;;;;;;;9.18;8.23;;;8.60;99.90;;;;;;5053441;28;20049;-78
2022/12/28 06:16:07;;;;;;;9.75;8.43;;;8.40;99.90;;;;;;5077217;28;20037;-78
2022/12/28 06:18:33;;;;;;;8.57;7.82;;;7.40;99.90;;;;;;5046128;28;20063;-78
2022/12/28 06:21:05;;;;;;;11.57;9.32;;;7.70;99.90;;;;;;5045292;28;20053;-78
2022/12/28 06:23:31;;;;;;;8.88;7.97;;;7.40;99.90;;;;;;5045901;28;20055;-78
2022/12/28 06:26:01;;;;;;;9.80;8.60;;;7.40;99.90;;;;;;5040351;28;20124;-78
2022/12/28 06:28:27;;;;;;;8.77;7.60;;;7.90;99.90;;;;;;5029508;28;20045;-78
2022/12/28 06:31:04;;;;;;;7.60;6.82;;;7.40;99.90;;;;;;5044618;28;20536;-78
2022/12/28 06:33:30;;;;;;;11.52;7.72;;;7.50;99.90;;;;;;5043802;28;20034;-78
2022/12/28 06:35:56;;;;;;;7.63;6.93;;;7.50;99.90;;;;;;5041387;28;20090;-77
2022/12/28 06:38:22;;;;;;;8.40;7.32;;;7.80;99.90;;;;;;5027044;28;20033;-77
2022/12/28 06:40:47;;;;;;;8.05;6.70;;;7.50;99.90;;;;;;5050978;28;20060;-78
2022/12/28 06:43:14;;;;;;;8.55;7.63;;;8.10;99.90;;;;;;5043670;28;20075;-78
2022/12/28 06:45:39;;;;;;;7.88;7.13;;;7.60;99.90;;;;;;5047830;28;20143;-78
2022/12/28 06:48:05;;;;;;;9.82;7.60;;;7.60;99.90;;;;;;5077676;28;20053;-78
2022/12/28 06:50:31;;;;;;;9.88;8.30;;;7.60;99.90;;;;;;5045834;28;20052;-78
2022/12/28 06:52:56;;;;;;;7.70;6.93;;;7.60;99.90;;;;;;5037882;28;20069;-78
2022/12/28 06:55:22;;;;;;;8.82;8.00;;;7.70;99.90;;;;;;5075304;28;20068;-78
2022/12/28 06:57:47;;;;;;;8.68;7.45;;;8.80;99.90;;;;;;5047383;28;20448;-78
2022/12/28 07:00:13;;;;;;;8.77;7.93;;;8.50;99.90;;;;;;5045137;28;20060;-78
2022/12/28 07:02:39;;;;;;;8.60;7.28;;;7.70;99.90;;;;;;5036852;28;20029;-78
2022/12/28 07:05:05;;;;;;;10.40;6.93;;;7.70;99.90;;;;;;5041722;28;20046;-78
2022/12/28 07:07:30;;;;;;;9.80;8.43;;;7.70;99.90;;;;;;5039470;28;20120;-78
2022/12/28 07:09:56;;;;;;;8.57;7.68;;;7.70;99.90;;;;;;5036897;28;20041;-78
2022/12/28 07:12:22;;;;;;;8.00;7.20;;;9.10;99.90;;;;;;5075720;28;20473;-78
2022/12/28 07:14:47;;;;;;;8.48;7.63;;;7.80;99.90;;;;;;5059958;28;20070;-78
2022/12/28 07:17:13;;;;;;;8.13;7.00;;;7.70;99.90;;;;;;5027734;28;20550;-78
2022/12/28 07:19:38;;;;;;;9.43;7.75;;;7.80;99.90;;;;;;5071075;28;20561;-78
2022/12/28 07:22:04;;;;;;;8.55;7.68;;;7.80;99.90;;;;;;5028295;28;20061;-78
2022/12/28 07:24:30;;;;;;;10.82;8.00;;;6.50;99.90;;;;;;5043949;28;20048;-78
2022/12/28 07:26:55;;;;;;;13.45;8.13;;;8.90;99.90;;;;;;5062281;28;20098;-78
2022/12/28 07:29:21;;;;;;;8.85;8.05;;;8.00;99.90;;;;;;5025071;28;20486;-78
2022/12/28 07:31:46;;;;;;;10.85;6.97;;;8.00;99.90;;;;;;5048907;28;20098;-79
2022/12/28 07:34:14;;;;;;;8.30;7.30;;;8.00;99.90;;;;;;5041300;28;20577;-78
2022/12/28 07:36:40;;;;;;;8.52;7.47;;;8.10;99.90;;;;;;5041414;28;20045;-78
2022/12/28 07:39:06;;;;;;;12.43;8.63;;;7.90;99.90;;;;;;5045225;28;20492;-78
2022/12/28 07:41:32;;;;;;;11.80;8.07;;;8.10;99.90;;;;;;5032350;28;20443;-78
2022/12/28 07:43:59;;;;;;;7.97;6.90;;;8.10;99.90;;;;;;5029777;28;20153;-79
2022/12/28 07:46:27;;;;;;;11.95;7.88;;;9.20;99.90;;;;;;5048063;28;20039;-78
2022/12/28 07:48:54;;;;;;;12.85;8.95;;;9.70;99.90;;;;;;5042585;28;20091;-78
2022/12/28 07:51:28;;;;;;;12.85;8.38;;;9.90;99.90;;;;;;5031121;28;20044;-78
2022/12/28 07:53:55;;;;;;;12.95;8.40;;;8.20;99.90;;;;;;5031990;28;20488;-79
2022/12/28 07:56:22;;;;;;;8.52;7.75;;;9.70;99.90;;;;;;5032641;28;20045;-78
2022/12/28 07:58:54;;;;;;;9.38;8.35;;;8.20;99.90;;;;;;5028319;28;20846;-78
2022/12/28 08:01:22;;;;;;;8.48;7.70;;;8.00;99.90;;;;;;5018634;28;20041;-78
2022/12/28 08:03:53;;;;;;;10.27;9.00;;;8.30;99.90;;;;;;5024376;28;20044;-78
2022/12/28 08:06:21;;;;;;;13.00;9.57;;;8.30;99.90;;;;;;5051489;28;20043;-78
2022/12/28 08:08:49;;;;;;;8.65;7.85;;;8.20;99.90;;;;;;5012145;28;20637;-79
2022/12/28 08:11:20;;;;;;;8.88;8.05;;;8.30;99.90;;;;;;5034483;28;20048;-78
2022/12/28 08:13:49;;;;;;;12.38;9.07;;;9.80;99.90;;;;;;5026489;28;20048;-78
2022/12/28 08:16:19;;;;;;;10.88;8.73;;;8.30;99.90;;;;;;5026440;28;20125;-78
2022/12/28 08:18:46;;;;;;;8.43;7.45;;;8.30;99.90;;;;;;5035019;28;20037;-77
2022/12/28 08:21:14;;;;;;;10.35;9.30;;;8.30;99.90;;;;;;5021392;28;20095;-77
2022/12/28 08:23:41;;;;;;;8.23;7.47;;;9.30;99.90;;;;;;5036505;28;20066;-78
2022/12/28 08:26:18;;;;;;;9.00;8.05;;;8.30;99.90;;;;;;5043051;28;20528;-78
2022/12/28 08:28:46;;;;;;;8.50;7.18;;;8.40;99.90;;;;;;5055248;28;20059;-79
2022/12/28 08:31:18;;;;;;;8.52;7.45;;;9.90;99.90;;;;;;5061348;28;20112;-78
2022/12/28 08:33:45;;;;;;;10.25;8.40;;;8.50;99.90;;;;;;5040843;28;20349;-78
2022/12/28 08:36:11;;;;;;;8.80;7.90;;;8.50;99.90;;;;;;5020036;28;20128;-77
2022/12/28 08:38:38;;;;;;;8.75;7.90;;;8.40;99.90;;;;;;5041645;28;20120;-77
2022/12/28 08:41:06;;;;;;;8.07;7.35;;;8.40;99.90;;;;;;5022712;28;20062;-77
2022/12/28 08:43:33;;;;;;;6.78;6.28;;;8.60;99.90;;;;;;5066485;28;20045;-77
2022/12/28 08:46:05;;;;;;;7.32;6.45;;;8.40;99.90;;;;;;5039826;28;20137;-77
2022/12/28 08:48:32;;;;;;;8.48;7.80;;;8.40;99.90;;;;;;5040602;28;20033;-77
2022/12/28 08:51:15;;;;;;;6.00;5.60;;;8.40;99.90;;;;;;5025517;28;20431;-77
2022/12/28 08:53:42;;;;;;;7.03;5.80;;;8.40;99.90;;;;;;5027489;28;20123;-78
2022/12/28 08:56:29;;;;;;;5.43;5.03;;;9.90;99.90;;;;;;5033796;28;20099;-78
2022/12/28 08:58:55;;;;;;;4.80;4.50;;;8.40;99.90;;;;;;5017845;28;20032;-78
2022/12/28 09:01:22;;;;;;;4.85;4.55;;;8.50;99.90;;;;;;5036547;28;20040;-78
2022/12/28 09:03:50;;;;;;;3.95;3.75;;;8.40;99.90;;;;;;5036883;28;20049;-77
2022/12/28 09:06:19;;;;;;;3.97;3.72;;;8.30;99.90;;;;;;5018131;28;20124;-77
2022/12/28 09:08:49;;;;;;;4.07;3.78;;;8.40;99.90;;;;;;5028434;28;20037;-77
2022/12/28 09:11:15;;;;;;;3.40;3.17;;;7.30;99.90;;;;;;5042607;28;20073;-78
2022/12/28 09:13:41;;;;;;;3.50;3.30;;;8.50;99.90;;;;;;5020966;28;20049;-78
2022/12/28 09:16:13;;;;;;;4.00;3.72;;;8.40;99.90;;;;;;5043476;28;20044;-77
2022/12/28 09:18:41;;;;;;;3.72;3.53;;;8.30;99.90;;;;;;5026076;28;20080;-78
2022/12/28 09:21:12;;;;;;;3.80;3.50;;;8.40;99.90;;;;;;5039950;28;20053;-79
2022/12/28 09:23:39;;;;;;;5.32;4.80;;;8.30;99.90;;;;;;5048369;28;20509;-79
2022/12/28 09:26:13;;;;;;;5.22;4.72;;;8.80;99.90;;;;;;5037809;28;20057;-78
2022/12/28 09:28:47;;;;;;;5.90;5.40;;;8.40;99.90;;;;;;5057469;28;20051;-78
2022/12/28 09:31:13;;;;;;;6.00;5.50;;;8.30;99.90;;;;;;5042578;28;20048;-78
2022/12/28 09:36:23;;;;;;;6.88;6.28;;;8.40;99.90;;;;;;5039745;28;20184;-79
2022/12/28 09:38:49;;;;;;;9.15;8.25;;;8.40;99.90;;;;;;5040675;28;20040;-78
2022/12/28 09:42:03;;;;;;;6.63;6.13;;;8.50;99.90;;;;;;5060217;28;20053;-79
2022/12/28 09:44:41;;;;;;;6.45;5.95;;;8.40;99.90;;;;;;5035961;28;20044;-78
2022/12/28 09:47:26;;;;;;;6.32;5.72;;;8.40;99.90;;;;;;5045123;28;20049;-79
2022/12/28 09:50:13;;;;;;;6.07;5.57;;;8.40;99.90;;;;;;5041210;28;20095;-78
2022/12/28 09:52:48;;;;;;;4.53;4.20;;;8.40;99.90;;;;;;5020674;28;20551;-78
2022/12/28 09:55:15;;;;;;;9.25;5.45;;;8.50;99.90;;;;;;5075802;28;20041;-78
2022/12/28 09:57:47;;;;;;;5.75;5.25;;;8.50;99.90;;;;;;5038737;28;20761;-79
2022/12/28 10:00:20;;;;;;;5.47;4.97;;;8.40;99.90;;;;;;5041826;28;20537;-79
2022/12/28 10:03:08;;;;;;;6.10;5.47;;;8.50;99.90;;;;;;5042029;28;20037;-78
2022/12/28 10:05:34;;;;;;;6.03;5.30;;;9.80;99.90;;;;;;5021212;28;20049;-78
2022/12/28 10:08:00;;;;;;;6.15;5.38;;;8.50;99.90;;;;;;5076769;28;20049;-78
2022/12/28 10:10:27;;;;;;;5.03;4.60;;;8.50;99.90;;;;;;5039150;28;20041;-77
2022/12/28 10:12:53;;;;;;;5.43;4.93;;;8.50;99.90;;;;;;5020647;28;20082;-78
2022/12/28 10:15:24;;;;;;;7.03;6.28;;;8.50;99.90;;;;;;5021902;28;20049;-78
2022/12/28 10:17:49;;;;;;;7.28;6.13;;;8.50;99.90;;;;;;5039693;28;20052;-78
2022/12/28 10:20:18;;;;;;;7.00;6.00;;;9.50;99.90;;;;;;5041233;28;20044;-78
2022/12/28 10:22:49;;;;;;;8.30;6.13;;;8.50;99.90;;;;;;5037659;28;20473;-78
2022/12/28 10:25:19;;;;;;;12.57;10.88;;;8.50;99.90;;;;;;4370894;28;10000754;-78
2022/12/28 10:27:45;;;;;;;10.07;7.68;;;8.50;99.90;;;;;;5042772;28;20045;-78
2022/12/28 10:30:44;;;;;;;6.90;6.30;;;8.70;99.90;;;;;;5070111;28;20033;-78
2022/12/28 10:33:16;;;;;;;7.13;6.43;;;8.60;99.90;;;;;;5022448;28;20045;-78
2022/12/28 10:35:49;;;;;;;7.75;6.38;;;8.50;99.90;;;;;;5025668;28;20048;-77
2022/12/28 10:38:32;;;;;;;6.93;6.35;;;8.70;99.90;;;;;;5038022;28;20076;-78
2022/12/28 10:41:11;;;;;;;7.03;5.45;;;8.50;99.90;;;;;;5046185;28;20056;-78
2022/12/28 10:43:44;;;;;;;6.05;5.32;;;8.50;99.90;;;;;;5025062;28;20541;-78
2022/12/28 10:46:22;;;;;;;5.70;5.13;;;10.00;99.90;;;;;;5027970;28;20090;-79
2022/12/28 10:48:54;;;;;;;5.75;5.05;;;9.10;99.90;;;;;;5040378;28;20145;-77
2022/12/28 10:51:25;;;;;;;4.13;3.83;;;8.60;99.90;;;;;;5029332;28;20162;-78
2022/12/28 10:53:55;;;;;;;4.10;3.80;;;8.60;99.90;;;;;;5043668;28;20052;-77
2022/12/28 10:56:29;;;;;;;4.15;3.75;;;8.60;99.90;;;;;;5041880;28;20053;-77
2022/12/28 10:59:11;;;;;;;3.45;3.25;;;8.60;99.90;;;;;;5044160;28;20037;-78
2022/12/28 11:01:38;;;;;;;4.25;3.88;;;10.20;99.90;;;;;;5034837;28;20081;-76
2022/12/28 11:04:15;;;;;;;4.22;3.83;;;9.00;99.90;;;;;;5040637;28;20576;-76
2022/12/28 11:06:55;;;;;;;4.18;3.88;;;9.10;99.90;;;;;;5039525;28;20102;-76
2022/12/28 11:09:26;;;;;;;4.22;3.85;;;8.00;99.90;;;;;;5072057;28;20049;-77
2022/12/28 11:11:54;;;;;;;4.53;3.55;;;7.70;99.90;;;;;;5042568;28;20037;-76
2022/12/28 11:14:34;;;;;;;3.80;3.20;;;8.70;99.90;;;;;;5071854;28;20508;-76
2022/12/28 11:17:12;;;;;;;3.83;3.17;;;8.60;99.90;;;;;;5040110;28;20110;-80
2022/12/28 11:19:38;;;;;;;3.30;3.05;;;8.70;99.90;;;;;;5045972;28;20100;-77
2022/12/28 11:22:03;;;;;;;2.80;2.70;;;8.70;99.90;;;;;;5042257;28;20132;-76
2022/12/28 11:24:29;;;;;;;2.97;2.78;;;8.70;99.90;;;;;;5027714;28;20064;-76
2022/12/28 11:26:56;;;;;;;3.03;2.47;;;8.70;99.90;;;;;;5042643;28;20519;-77
2022/12/28 11:29:22;;;;;;;2.17;1.98;;;8.70;99.90;;;;;;5029309;28;20695;-77
2022/12/28 11:32:03;;;;;;;2.92;2.70;;;8.70;99.90;;;;;;5039154;28;20049;-76
2022/12/28 11:34:30;;;;;;;3.47;3.20;;;9.80;99.90;;;;;;5024549;28;20045;-77
2022/12/28 11:36:57;;;;;;;2.50;2.30;;;8.60;99.90;;;;;;5023147;28;20060;-76
2022/12/28 11:39:25;;;;;;;4.13;1.80;;;8.60;99.90;;;;;;5045502;28;20127;-77
2022/12/28 11:41:56;;;;;;;4.07;2.75;;;8.70;99.90;;;;;;5057753;28;20140;-75
2022/12/28 11:44:31;;;;;;;4.53;2.55;;;8.70;99.90;;;;;;5042387;28;20045;-77
2022/12/28 11:47:19;;;;;;;4.10;2.70;;;8.70;99.90;;;;;;5071237;28;20120;-75
2022/12/28 11:49:46;;;;;;;7.90;2.65;;;8.70;99.90;;;;;;5042154;28;20045;-78
2022/12/28 11:52:26;;;;;;;52.90;7.93;;;10.10;99.90;;;;;;5026201;28;20060;-75
2022/12/28 11:54:53;;;;;;;2.88;2.50;;;9.50;99.90;;;;;;5043538;28;20099;-79
2022/12/28 11:57:39;;;;;;;4.13;2.80;;;8.80;99.90;;;;;;5037594;28;20619;-77
2022/12/28 12:00:18;;;;;;;3.45;2.97;;;8.70;99.90;;;;;;5037896;28;20116;-77
2022/12/28 12:02:49;;;;;;;3.28;3.08;;;8.60;99.90;;;;;;5068544;28;20132;-74
2022/12/28 12:05:34;;;;;;;5.82;3.50;;;8.80;99.90;;;;;;5071577;28;20037;-79
2022/12/28 12:08:00;;;;;;;3.35;3.13;;;8.70;99.90;;;;;;5040396;28;20073;-78
2022/12/28 12:10:35;;;;;;;3.22;2.92;;;9.30;99.90;;;;;;5072648;28;20507;-78
2022/12/28 12:13:21;;;;;;;3.53;3.22;;;8.70;99.90;;;;;;5056489;28;20600;-77
2022/12/28 12:15:48;;;;;;;3.53;3.20;;;9.70;99.90;;;;;;5044678;28;20044;-78
2022/12/28 12:18:22;;;;;;;3.40;3.10;;;8.70;99.90;;;;;;5025565;28;20379;-77
2022/12/28 12:20:54;;;;;;;5.00;3.58;;;8.70;99.90;;;;;;5046584;28;20096;-78
2022/12/28 12:23:38;;;;;;;3.20;2.70;;;8.70;99.90;;;;;;5043742;28;20090;-77
2022/12/28 12:26:34;;;;;;;3.50;3.30;;;8.70;99.90;;;;;;4689878;28;9999738;-77
2022/12/28 12:29:23;;;;;;;5.72;5.22;;;8.60;99.90;;;;;;5034939;28;20092;-77
2022/12/28 12:32:01;;;;;;;3.28;3.08;;;8.60;99.90;;;;;;5039459;28;20049;-77
2022/12/28 12:34:43;;;;;;;2.70;2.50;;;8.70;99.90;;;;;;5036644;28;20047;-77
2022/12/28 12:37:42;;;;;;;3.22;2.83;;;8.70;99.90;;;;;;5017155;28;20103;-77
2022/12/28 12:40:25;;;;;;;2.67;2.47;;;8.70;99.90;;;;;;5040825;28;20045;-77
2022/12/28 12:43:07;;;;;;;3.08;2.45;;;8.70;99.90;;;;;;5040380;28;20037;-77
2022/12/28 12:45:52;;;;;;;2.40;2.30;;;8.60;99.90;;;;;;5043196;28;20131;-77
2022/12/28 12:48:25;;;;;;;2.40;2.20;;;8.60;99.90;;;;;;5045047;28;20886;-76
2022/12/28 12:51:09;;;;;;;2.65;2.28;;;9.40;99.90;;;;;;5024003;28;20040;-77
2022/12/28 12:53:53;;;;;;;1.92;1.83;;;8.20;99.90;;;;;;5038112;28;20477;-78
2022/12/28 12:56:46;;;;;;;2.85;2.20;;;8.60;99.90;;;;;;5036931;28;20669;-77
2022/12/28 12:59:47;;;;;;;2.15;1.80;;;8.60;99.90;;;;;;5051825;28;20038;-77
2022/12/28 13:02:41;;;;;;;1.98;1.42;;;8.70;99.90;;;;;;5020402;28;20444;-79
2022/12/28 13:05:10;;;;;;;2.38;1.77;;;8.60;99.90;;;;;;5021365;28;20045;-79
2022/12/28 13:07:38;;;;;;;1.90;1.80;;;8.60;99.90;;;;;;5039977;28;20049;-75
2022/12/28 13:10:06;;;;;;;1.52;1.40;;;8.70;99.90;;;;;;5037634;28;20048;-77
2022/12/28 13:12:32;;;;;;;2.45;1.70;;;8.60;99.90;;;;;;5050280;28;20071;-78
2022/12/28 13:15:03;;;;;;;1.65;1.63;;;8.70;99.90;;;;;;5038454;28;20405;-77
2022/12/28 13:17:29;;;;;;;2.15;1.73;;;8.70;99.90;;;;;;5038395;28;20043;-78
2022/12/28 13:20:10;;;;;;;2.70;2.35;;;8.70;99.90;;;;;;5055836;28;20133;-76
2022/12/28 13:22:35;;;;;;;2.33;1.50;;;8.70;99.90;;;;;;5032358;28;20053;-76
2022/12/28 13:25:02;;;;;;;2.35;2.13;;;8.70;99.90;;;;;;5043439;28;20045;-79
2022/12/28 13:27:34;;;;;;;1.77;1.67;;;8.70;99.90;;;;;;5035719;28;20132;-78
2022/12/28 13:30:01;;;;;;;2.17;2.08;;;8.70;99.90;;;;;;5067639;28;21737;-78
2022/12/28 13:32:50;;;;;;;1.73;1.05;;;8.70;99.90;;;;;;5039559;28;20131;-78
2022/12/28 13:35:19;;;;;;;2.88;0.93;;;8.70;99.90;;;;;;5025785;28;20060;-78
2022/12/28 13:37:59;;;;;;;1.13;1.00;;;8.70;99.90;;;;;;5047727;28;20044;-78
2022/12/28 13:40:24;;;;;;;2.75;1.00;;;9.10;99.90;;;;;;5026048;28;20079;-78
2022/12/28 13:43:24;;;;;;;1.58;1.00;;;8.70;99.90;;;;;;5017837;28;20441;-78
2022/12/28 13:46:07;;;;;;;2.90;0.90;;;8.80;99.90;;;;;;5056499;28;20045;-78